createdAt,value
2022-12-12T00:00:59.985Z,22.00
2022-12-12T00:06:26.650Z,19.50
2022-12-12T00:11:48.380Z,20.47
2022-12-12T00:17:10.136Z,22.97
2022-12-12T00:22:32.602Z,22.60
2022-12-12T00:27:54.340Z,20.63
2022-12-12T00:33:16.675Z,21.43
2022-12-12T00:38:38.516Z,21.90
2022-12-12T00:44:00.760Z,20.97
2022-12-12T00:49:22.492Z,20.07
2022-12-12T00:54:44.258Z,19.23
2022-12-12T01:00:07.730Z,20.93
2022-12-12T01:05:29.548Z,19.93
2022-12-12T01:10:51.571Z,19.83
2022-12-12T01:16:13.991Z,20.40
2022-12-12T01:21:36.794Z,19.17
2022-12-12T01:26:58.638Z,18.73
2022-12-12T01:32:20.383Z,17.47
2022-12-12T01:37:42.609Z,18.70
2022-12-12T01:43:11.383Z,18.73
2022-12-12T01:48:36.923Z,18.17
2022-12-12T01:54:07.192Z,16.67
2022-12-12T01:59:29.497Z,17.83
2022-12-12T02:04:51.531Z,17.43
2022-12-12T02:10:13.277Z,17.70
2022-12-12T02:15:44.518Z,17.17
2022-12-12T02:21:18.119Z,17.17
2022-12-12T02:27:17.225Z,16.90
2022-12-12T02:33:09.187Z,17.63
2022-12-12T02:38:39.744Z,15.40
2022-12-12T02:44:26.165Z,16.70
2022-12-12T02:49:54.471Z,15.33
2022-12-12T02:55:17.158Z,16.57
2022-12-12T03:00:52.415Z,17.70
2022-12-12T03:07:01.110Z,16.77
2022-12-12T03:12:33.911Z,16.50
2022-12-12T03:18:15.844Z,16.03
2022-12-12T03:23:44.601Z,17.17
2022-12-12T03:29:11.199Z,18.60
2022-12-12T03:34:38.218Z,19.03
2022-12-12T03:40:11.357Z,18.53
2022-12-12T03:45:43.041Z,19.73
2022-12-12T03:51:11.351Z,19.23
2022-12-12T03:56:42.906Z,20.10
2022-12-12T04:02:10.685Z,19.57
2022-12-12T04:07:39.367Z,20.17
2022-12-12T04:13:32.449Z,20.13
2022-12-12T04:19:09.077Z,20.60
2022-12-12T04:24:58.191Z,19.20
2022-12-12T04:30:20.116Z,20.00
2022-12-12T04:35:46.090Z,20.07
2022-12-12T04:41:10.276Z,20.43
2022-12-12T04:46:33.929Z,19.80
2022-12-12T04:52:02.114Z,21.27
2022-12-12T04:57:39.756Z,21.53
2022-12-12T05:03:19.108Z,20.83
2022-12-12T05:08:47.378Z,20.73
2022-12-12T05:14:10.322Z,20.80
2022-12-12T05:19:32.121Z,20.93
2022-12-12T05:24:53.813Z,20.83
2022-12-12T05:30:15.637Z,22.10
2022-12-12T05:35:37.434Z,21.57
2022-12-12T05:40:59.172Z,22.50
2022-12-12T05:46:21.058Z,22.10
2022-12-12T05:51:42.836Z,23.40
2022-12-12T05:57:04.545Z,21.00
2022-12-12T06:02:26.300Z,22.30
2022-12-12T06:07:48.299Z,21.93
2022-12-12T06:13:10.193Z,23.50
2022-12-12T06:18:31.905Z,23.37
2022-12-12T06:23:53.627Z,22.50
2022-12-12T06:29:15.544Z,23.30
2022-12-12T06:34:38.363Z,22.03
2022-12-12T06:40:00.164Z,22.53
2022-12-12T06:45:21.877Z,23.73
2022-12-12T06:50:45.310Z,23.00
2022-12-12T06:56:18.606Z,21.53
2022-12-12T07:01:40.600Z,22.27
2022-12-12T07:07:02.387Z,21.57
2022-12-12T07:12:24.135Z,23.27
2022-12-12T07:17:47.185Z,23.67
2022-12-12T07:23:09.099Z,21.80
2022-12-12T07:28:31.157Z,21.57
2022-12-12T07:33:54.327Z,21.80
2022-12-12T07:39:20.804Z,22.47
2022-12-12T07:44:42.937Z,22.87
2022-12-12T07:50:05.072Z,22.50
2022-12-12T07:55:27.232Z,20.90
2022-12-12T08:00:49.029Z,21.20
2022-12-12T08:06:12.224Z,22.03
2022-12-12T08:11:33.946Z,21.87
2022-12-12T08:16:56.260Z,21.23
2022-12-12T08:22:18.504Z,21.97
2022-12-12T08:27:40.862Z,22.73
2022-12-12T08:33:07.960Z,21.37
2022-12-12T08:38:30.363Z,21.07
2022-12-12T08:43:52.046Z,19.63
2022-12-12T08:49:13.743Z,20.40
2022-12-12T08:54:36.818Z,22.23
2022-12-12T08:59:58.526Z,21.83
2022-12-12T09:05:20.252Z,21.67
2022-12-12T09:10:42.909Z,20.63
2022-12-12T09:16:06.027Z,20.07
2022-12-12T09:21:27.857Z,19.57
2022-12-12T09:26:49.617Z,20.40
2022-12-12T09:32:11.573Z,20.60
2022-12-12T09:37:33.663Z,20.73
2022-12-12T09:42:56.059Z,19.90
2022-12-12T09:48:35.459Z,18.97
2022-12-12T09:53:57.542Z,19.03
2022-12-12T09:59:27.591Z,19.27
2022-12-12T10:05:01.209Z,19.47
2022-12-12T10:10:27.579Z,20.07
2022-12-12T10:15:56.387Z,19.47
2022-12-12T10:21:24.351Z,20.40
2022-12-12T10:26:46.117Z,19.60
2022-12-12T10:32:30.048Z,19.87
2022-12-12T10:38:16.120Z,19.90
2022-12-12T10:43:47.380Z,20.90
2022-12-12T10:49:22.959Z,21.10
2022-12-12T10:55:00.834Z,20.87
2022-12-12T11:00:35.272Z,19.63
2022-12-12T11:05:57.851Z,20.50
2022-12-12T11:11:22.745Z,19.33
2022-12-12T11:16:47.520Z,18.97
2022-12-12T11:22:11.612Z,19.07
2022-12-12T11:27:37.870Z,20.10
2022-12-12T11:32:59.841Z,17.27
2022-12-12T11:38:26.997Z,17.20
2022-12-12T11:43:48.695Z,16.87
2022-12-12T11:49:19.130Z,14.83
2022-12-12T11:54:40.913Z,16.17
2022-12-12T12:00:11.422Z,16.50
2022-12-12T12:05:47.324Z,14.77
2022-12-12T12:11:15.170Z,13.33
2022-12-12T12:16:48.609Z,14.03
2022-12-12T12:22:16.075Z,15.67
2022-12-12T12:27:51.539Z,18.27
2022-12-12T12:33:31.518Z,17.93
2022-12-12T12:39:38.042Z,15.53
2022-12-12T12:45:20.939Z,17.43
2022-12-12T12:51:01.706Z,16.47
2022-12-12T12:56:27.582Z,16.60
2022-12-12T13:01:51.604Z,15.03
2022-12-12T13:07:40.924Z,15.03
2022-12-12T13:13:21.418Z,14.23
2022-12-12T13:18:46.669Z,14.83
2022-12-12T13:24:20.021Z,15.83
2022-12-12T13:30:05.187Z,16.10
2022-12-12T13:35:41.763Z,19.20
2022-12-12T13:41:06.541Z,19.37
2022-12-12T13:46:35.055Z,19.47
2022-12-12T13:52:27.750Z,19.70
2022-12-12T13:58:02.752Z,19.87
2022-12-12T14:03:29.790Z,19.93
2022-12-12T14:08:51.962Z,20.43
2022-12-12T14:14:20.554Z,20.13
2022-12-12T14:19:42.399Z,21.37
2022-12-12T14:25:08.242Z,19.57
2022-12-12T14:30:45.423Z,20.00
2022-12-12T14:36:25.899Z,20.87
2022-12-12T14:41:48.220Z,19.83
2022-12-12T14:47:09.998Z,21.47
2022-12-12T14:52:31.731Z,19.43
2022-12-12T14:57:53.433Z,19.80
2022-12-12T15:03:15.976Z,20.70
2022-12-12T15:08:38.244Z,19.47
2022-12-12T15:14:01.609Z,20.77
2022-12-12T15:19:27.619Z,19.50
2022-12-12T15:24:49.947Z,19.03
2022-12-12T15:30:14.411Z,18.47
2022-12-12T15:35:36.305Z,17.67
2022-12-12T15:41:00.883Z,18.27
2022-12-12T15:46:22.823Z,18.30
2022-12-12T15:51:44.687Z,19.00
2022-12-12T15:57:06.450Z,17.90
2022-12-12T16:02:31.097Z,18.17
2022-12-12T16:07:52.906Z,17.90
2022-12-12T16:13:17.382Z,19.27
2022-12-12T16:18:40.568Z,16.97
2022-12-12T16:24:19.687Z,19.10
2022-12-12T16:29:41.457Z,16.57
2022-12-12T16:35:03.866Z,17.57
2022-12-12T16:40:25.598Z,16.53
2022-12-12T16:45:50.181Z,17.83
2022-12-12T16:51:21.777Z,18.30
2022-12-12T16:56:44.614Z,17.37
2022-12-12T17:02:20.322Z,17.93
2022-12-12T17:07:42.093Z,18.07
2022-12-12T17:13:05.683Z,15.90
2022-12-12T17:18:27.439Z,15.30
2022-12-12T17:23:49.179Z,15.80
2022-12-12T17:29:10.956Z,17.30
2022-12-12T17:34:32.741Z,17.77
2022-12-12T17:39:54.653Z,16.40
2022-12-12T17:45:16.632Z,17.00
2022-12-12T17:50:41.788Z,17.33
2022-12-12T17:56:07.926Z,15.17
2022-12-12T18:01:33.796Z,16.60
2022-12-12T18:06:55.665Z,16.27
2022-12-12T18:12:17.399Z,15.83
2022-12-12T18:17:40.647Z,16.27
2022-12-12T18:23:02.975Z,16.40
2022-12-12T18:28:25.085Z,16.10
2022-12-12T18:33:47.226Z,18.27
2022-12-12T18:39:09.053Z,18.30
2022-12-12T18:44:30.805Z,16.97
2022-12-12T18:49:52.526Z,17.43
2022-12-12T18:55:14.352Z,17.17
2022-12-12T19:00:39.825Z,17.00
2022-12-12T19:06:10.661Z,18.37
2022-12-12T19:11:35.097Z,17.00
2022-12-12T19:16:57.034Z,17.80
2022-12-12T19:22:43.901Z,20.07
2022-12-12T19:28:00.642Z,18.83
2022-12-12T19:33:22.488Z,18.33
2022-12-12T19:38:45.101Z,18.80
2022-12-12T19:44:12.293Z,17.77
2022-12-12T19:49:34.000Z,19.67
2022-12-12T19:54:55.786Z,18.03
2022-12-12T20:00:19.779Z,20.03
2022-12-12T20:05:42.306Z,19.07
2022-12-12T20:11:06.779Z,19.27
2022-12-12T20:16:29.641Z,18.57
2022-12-12T20:22:02.143Z,19.53
2022-12-12T20:27:24.527Z,19.23
2022-12-12T20:32:46.332Z,18.43
2022-12-12T20:38:08.103Z,19.20
2022-12-12T20:43:29.929Z,20.03
2022-12-12T20:48:51.647Z,19.27
2022-12-12T20:54:14.660Z,19.30
2022-12-12T20:59:36.427Z,19.23
2022-12-12T21:04:58.196Z,19.10
2022-12-12T21:10:19.973Z,18.63
2022-12-12T21:15:41.863Z,19.37
2022-12-12T21:21:04.552Z,18.93
2022-12-12T21:26:29.389Z,20.53
2022-12-12T21:31:52.523Z,19.90
2022-12-12T21:37:14.835Z,20.23
2022-12-12T21:42:36.590Z,20.63
2022-12-12T21:47:58.318Z,20.87
2022-12-12T21:53:35.336Z,20.73
2022-12-12T21:58:57.498Z,21.00
2022-12-12T22:04:19.472Z,20.63
2022-12-12T22:09:42.429Z,19.73
2022-12-12T22:15:04.590Z,19.17
2022-12-12T22:20:26.328Z,21.33
2022-12-12T22:25:48.613Z,20.17
2022-12-12T22:31:11.066Z,20.83
2022-12-12T22:36:35.473Z,18.73
2022-12-12T22:41:57.337Z,18.50
2022-12-12T22:47:19.190Z,18.27
2022-12-12T22:52:40.907Z,18.20
2022-12-12T22:58:03.154Z,20.63
2022-12-12T23:03:24.855Z,19.93
2022-12-12T23:08:51.641Z,19.90
2022-12-12T23:14:16.773Z,20.53
2022-12-12T23:19:38.486Z,18.73
2022-12-12T23:25:00.559Z,18.47
2022-12-12T23:30:22.248Z,19.30
2022-12-12T23:35:50.985Z,20.53
2022-12-12T23:41:15.570Z,19.33
2022-12-12T23:46:37.391Z,18.80
2022-12-12T23:51:59.773Z,17.60
2022-12-12T23:57:21.569Z,19.10
